Time;durP1;ratioP1;P1;durP2;ratioP2;P2;SDS_P1;SDS_P2;PMS_P1;PMS_P2;Temp;Humidity;BMP_temperature;BMP_pressure;BME280_temperature;BME280_humidity;BME280_pressure;Samples;Min_cycle;Max_cycle;Signal;HPM_P1;HPM_P2
2022/01/11 00:00:07;;;;;;;6.45;3.58;;;20.00;50.50;;;;;;5075899;28;20048;-61
2022/01/11 00:02:35;;;;;;;5.15;3.22;;;20.00;50.50;;;;;;5075745;28;20048;-61
2022/01/11 00:05:01;;;;;;;6.57;3.55;;;20.00;50.50;;;;;;5075162;28;20049;-61
2022/01/11 00:07:29;;;;;;;6.07;3.60;;;20.00;50.40;;;;;;5075299;28;20055;-61
2022/01/11 00:09:56;;;;;;;6.38;3.47;;;20.00;50.50;;;;;;5075628;28;20094;-61
2022/01/11 00:12:22;;;;;;;4.95;3.35;;;19.90;50.40;;;;;;5074625;28;20041;-61
2022/01/11 00:14:47;;;;;;;5.28;3.30;;;19.90;50.40;;;;;;5075751;28;20052;-61
2022/01/11 00:17:13;;;;;;;5.55;3.00;;;19.90;50.40;;;;;;5075207;28;20044;-61
2022/01/11 00:19:38;;;;;;;4.57;3.42;;;19.90;50.50;;;;;;5074728;28;20147;-61
2022/01/11 00:22:07;;;;;;;6.05;3.22;;;19.90;50.40;;;;;;5074977;28;20403;-61
2022/01/11 00:24:35;;;;;;;5.03;3.00;;;19.90;50.50;;;;;;5074539;28;20059;-61
2022/01/11 00:27:00;;;;;;;5.03;3.30;;;19.90;50.50;;;;;;5074499;28;20484;-61
2022/01/11 00:29:26;;;;;;;4.72;2.97;;;19.90;50.50;;;;;;5074840;28;20049;-61
2022/01/11 00:31:52;;;;;;;4.68;3.13;;;19.90;50.40;;;;;;5074563;28;20036;-61
2022/01/11 00:34:20;;;;;;;5.53;3.15;;;19.80;50.30;;;;;;5075097;28;20084;-61
2022/01/11 00:36:46;;;;;;;4.18;3.05;;;19.80;50.40;;;;;;5075234;28;20051;-61
2022/01/11 00:39:11;;;;;;;4.15;3.00;;;19.80;50.30;;;;;;5074074;28;20040;-61
2022/01/11 00:41:41;;;;;;;4.60;2.88;;;19.80;50.30;;;;;;5074917;28;20121;-61
2022/01/11 00:44:06;;;;;;;4.18;2.80;;;19.80;50.30;;;;;;5075257;28;20098;-61
2022/01/11 00:46:32;;;;;;;4.13;3.03;;;19.80;50.40;;;;;;5073478;28;20045;-61
2022/01/11 00:48:58;;;;;;;4.72;2.85;;;19.80;50.40;;;;;;5075193;28;20045;-61
2022/01/11 00:51:23;;;;;;;4.63;3.05;;;19.80;50.40;;;;;;5074705;28;20044;-61
2022/01/11 00:53:49;;;;;;;4.53;3.03;;;19.70;50.30;;;;;;5073860;28;20052;-61
2022/01/11 00:56:14;;;;;;;4.13;2.90;;;19.70;50.30;;;;;;5074677;28;20483;-61
2022/01/11 00:58:41;;;;;;;4.65;2.97;;;19.70;50.20;;;;;;5074485;28;20060;-61
2022/01/11 01:01:07;;;;;;;4.93;3.03;;;19.70;50.20;;;;;;5073881;28;20044;-61
2022/01/11 01:03:32;;;;;;;5.10;2.85;;;19.70;50.20;;;;;;5074248;28;20048;-61
2022/01/11 01:05:58;;;;;;;5.07;2.95;;;19.70;50.20;;;;;;5074531;28;20056;-61
2022/01/11 01:08:23;;;;;;;5.07;2.90;;;19.70;50.20;;;;;;5055317;28;20055;-61
2022/01/11 01:10:50;;;;;;;5.13;3.17;;;19.70;50.20;;;;;;5074681;28;20498;-61
2022/01/11 01:13:18;;;;;;;4.38;2.88;;;19.60;50.10;;;;;;5073817;28;20119;-61
2022/01/11 01:15:48;;;;;;;4.40;2.92;;;19.60;50.10;;;;;;5072726;28;20079;-61
2022/01/11 01:18:20;;;;;;;4.25;2.85;;;19.60;50.00;;;;;;5073934;28;20040;-61
2022/01/11 01:20:46;;;;;;;3.97;2.83;;;19.60;50.10;;;;;;5074071;28;20411;-61
2022/01/11 01:23:12;;;;;;;4.82;3.00;;;19.60;50.00;;;;;;5056070;28;20040;-61
2022/01/11 01:25:38;;;;;;;4.57;2.80;;;19.60;50.00;;;;;;5074333;28;20044;-61
2022/01/11 01:28:05;;;;;;;3.90;2.70;;;19.60;50.10;;;;;;5073285;28;20037;-61
2022/01/11 01:30:31;;;;;;;4.90;2.70;;;19.60;50.00;;;;;;5073758;28;20048;-61
2022/01/11 01:32:56;;;;;;;4.18;2.85;;;19.60;50.00;;;;;;5073684;28;20515;-61
2022/01/11 01:35:25;;;;;;;4.28;2.78;;;19.50;49.90;;;;;;5055355;28;20051;-61
2022/01/11 01:37:51;;;;;;;3.92;2.80;;;19.50;49.90;;;;;;5073264;28;20045;-61
2022/01/11 01:40:17;;;;;;;4.85;2.60;;;19.50;49.80;;;;;;5055415;28;20495;-61
2022/01/11 01:42:43;;;;;;;4.43;3.03;;;19.50;49.80;;;;;;5073016;28;20044;-61
2022/01/11 01:45:09;;;;;;;4.70;2.97;;;19.50;49.80;;;;;;5074102;28;20094;-61
2022/01/11 01:47:35;;;;;;;4.43;2.90;;;19.50;49.80;;;;;;5055359;28;20500;-61
2022/01/11 01:50:01;;;;;;;4.72;2.95;;;19.50;49.80;;;;;;5072896;28;20440;-61
2022/01/11 01:52:26;;;;;;;3.40;2.60;;;19.50;49.70;;;;;;5073433;28;20050;-61
2022/01/11 01:54:52;;;;;;;6.72;2.90;;;19.50;49.70;;;;;;5073680;28;20048;-61
2022/01/11 01:57:18;;;;;;;4.40;2.70;;;19.40;49.60;;;;;;5072399;28;20062;-61
2022/01/11 01:59:43;;;;;;;4.18;2.60;;;19.40;49.60;;;;;;5073635;28;20158;-61
2022/01/11 02:02:10;;;;;;;4.38;2.92;;;19.40;49.50;;;;;;5073707;28;20080;-61
2022/01/11 02:04:36;;;;;;;4.40;2.67;;;19.40;49.50;;;;;;5072523;28;20087;-61
2022/01/11 02:07:01;;;;;;;4.70;2.70;;;19.40;49.60;;;;;;5073397;28;20076;-61
2022/01/11 02:09:27;;;;;;;4.05;2.60;;;19.40;49.60;;;;;;5073122;28;20043;-61
2022/01/11 02:11:52;;;;;;;4.05;2.50;;;19.40;49.60;;;;;;5072473;28;20442;-61
2022/01/11 02:14:18;;;;;;;3.45;2.40;;;19.40;49.60;;;;;;5073214;28;20045;-61
2022/01/11 02:16:44;;;;;;;3.78;2.60;;;19.40;49.60;;;;;;5073181;28;20045;-61
2022/01/11 02:19:09;;;;;;;4.63;2.60;;;19.40;49.50;;;;;;5072478;28;20044;-61
2022/01/11 02:21:35;;;;;;;4.10;2.63;;;19.40;49.60;;;;;;5072811;28;20087;-61
2022/01/11 02:24:00;;;;;;;3.53;2.45;;;19.40;49.50;;;;;;5073345;28;20074;-61
2022/01/11 02:26:26;;;;;;;4.70;2.72;;;19.50;49.50;;;;;;5071741;28;20048;-60
2022/01/11 02:28:52;;;;;;;4.68;2.70;;;19.50;49.50;;;;;;5073253;28;20126;-61
2022/01/11 02:31:17;;;;;;;3.83;2.55;;;19.40;49.50;;;;;;5054080;28;20048;-61
2022/01/11 02:33:48;;;;;;;4.03;2.38;;;19.50;49.50;;;;;;5072845;28;20045;-61
2022/01/11 02:36:15;;;;;;;5.00;2.70;;;19.50;50.10;;;;;;5072728;28;20049;-61
2022/01/11 02:38:40;;;;;;;3.85;2.28;;;19.40;49.30;;;;;;5072139;28;20484;-61
2022/01/11 02:41:05;;;;;;;3.78;2.47;;;19.50;49.50;;;;;;5072974;28;20069;-61
2022/01/11 02:43:31;;;;;;;3.25;2.10;;;19.50;49.40;;;;;;5072775;28;20048;-61
2022/01/11 02:45:58;;;;;;;3.47;2.40;;;19.50;49.40;;;;;;5072076;28;20040;-60
2022/01/11 02:48:24;;;;;;;4.70;2.92;;;19.50;49.40;;;;;;5072736;28;20040;-61
2022/01/11 02:50:49;;;;;;;5.30;2.75;;;19.50;49.70;;;;;;5072572;28;20397;-61
2022/01/11 02:53:15;;;;;;;3.97;2.60;;;19.50;49.30;;;;;;5071732;28;20082;-61
2022/01/11 02:55:43;;;;;;;3.92;2.42;;;19.50;49.30;;;;;;5072512;28;20041;-61
2022/01/11 02:58:09;;;;;;;3.42;2.35;;;19.50;49.20;;;;;;5072302;28;20384;-61
2022/01/11 03:00:38;;;;;;;3.45;2.50;;;19.50;49.20;;;;;;5067425;28;20052;-61
2022/01/11 03:03:14;;;;;;;;;;;19.50;49.20;;;;;;5052949;28;20543;-61
2022/01/11 03:05:47;;;;;;;4.07;2.60;;;19.50;49.10;;;;;;5052059;28;19924;-61
2022/01/11 03:08:13;;;;;;;3.70;2.45;;;19.50;49.20;;;;;;5051499;28;20102;-61
2022/01/11 03:10:38;;;;;;;3.80;2.58;;;19.50;49.20;;;;;;5052714;28;20033;-61
2022/01/11 03:13:05;;;;;;;4.55;2.72;;;19.60;49.20;;;;;;5052474;28;20045;-61
2022/01/11 03:15:31;;;;;;;3.33;2.45;;;19.60;49.10;;;;;;5051362;28;20045;-61
2022/01/11 03:17:56;;;;;;;4.05;2.80;;;19.60;49.10;;;;;;5052637;28;20441;-61
2022/01/11 03:20:22;;;;;;;3.53;2.22;;;19.60;49.10;;;;;;5051293;28;20091;-61
2022/01/11 03:22:47;;;;;;;4.30;2.80;;;19.60;49.00;;;;;;5052554;28;20507;-61
2022/01/11 03:25:13;;;;;;;5.68;3.10;;;19.60;49.00;;;;;;5052232;28;20392;-61
2022/01/11 03:27:40;;;;;;;4.43;2.80;;;19.60;49.00;;;;;;5051824;28;20123;-61
2022/01/11 03:30:06;;;;;;;4.40;2.75;;;19.60;49.00;;;;;;5053329;28;20125;-61
2022/01/11 03:32:31;;;;;;;4.43;2.90;;;19.60;48.80;;;;;;5052473;28;20519;-61
2022/01/11 03:34:57;;;;;;;4.68;2.47;;;19.60;48.80;;;;;;5033727;28;20074;-61
2022/01/11 03:37:22;;;;;;;4.80;2.95;;;19.60;48.80;;;;;;5052033;28;20113;-61
2022/01/11 03:39:48;;;;;;;3.95;2.53;;;19.70;48.90;;;;;;5052398;28;20045;-61
2022/01/11 03:42:14;;;;;;;4.47;2.83;;;19.70;48.80;;;;;;5051348;28;20053;-61
2022/01/11 03:44:40;;;;;;;4.70;3.13;;;19.70;48.80;;;;;;5052424;28;20511;-61
2022/01/11 03:47:05;;;;;;;4.95;2.90;;;19.60;48.60;;;;;;5052116;28;20435;-61
2022/01/11 03:49:31;;;;;;;4.32;3.00;;;19.70;48.70;;;;;;5051396;28;20449;-61
2022/01/11 03:51:56;;;;;;;4.53;2.97;;;19.70;48.70;;;;;;5052165;28;20509;-61
2022/01/11 03:54:28;;;;;;;5.57;2.80;;;19.70;48.60;;;;;;5051628;28;20045;-61
2022/01/11 03:56:54;;;;;;;5.45;3.10;;;19.70;48.60;;;;;;5051438;28;20045;-61
2022/01/11 03:59:19;;;;;;;4.68;2.90;;;19.70;48.60;;;;;;5051551;28;20103;-61
2022/01/11 04:01:45;;;;;;;4.88;2.90;;;19.70;48.50;;;;;;5053161;28;20041;-61
2022/01/11 04:04:11;;;;;;;5.55;3.15;;;19.70;48.50;;;;;;5037428;28;20041;-61
2022/01/11 04:06:37;;;;;;;5.18;3.03;;;19.70;48.50;;;;;;5055346;28;20087;-61
2022/01/11 04:09:04;;;;;;;5.60;3.13;;;19.70;48.40;;;;;;5055931;28;20063;-60
2022/01/11 04:11:30;;;;;;;6.00;3.35;;;19.70;48.30;;;;;;5054812;28;20047;-61
2022/01/11 04:13:55;;;;;;;5.35;3.38;;;19.70;48.30;;;;;;5055787;28;20401;-61
2022/01/11 04:16:21;;;;;;;5.18;3.33;;;19.70;48.30;;;;;;5055406;28;20392;-61
2022/01/11 04:18:46;;;;;;;5.45;3.35;;;19.80;48.30;;;;;;5054641;28;20049;-60
2022/01/11 04:21:12;;;;;;;4.18;3.17;;;19.80;48.40;;;;;;5054822;28;20094;-61
2022/01/11 04:23:38;;;;;;;4.38;3.10;;;19.80;48.30;;;;;;5055509;28;20076;-60
2022/01/11 04:26:04;;;;;;;5.60;3.10;;;19.80;48.30;;;;;;5055082;28;20041;-61
2022/01/11 04:28:30;;;;;;;5.45;3.13;;;19.80;48.30;;;;;;5055325;28;20033;-61
2022/01/11 04:31:00;;;;;;;4.95;2.90;;;19.80;48.30;;;;;;5054282;28;20447;-61
2022/01/11 04:33:26;;;;;;;5.32;3.55;;;19.70;48.10;;;;;;5055198;28;20041;-60
2022/01/11 04:35:52;;;;;;;5.47;3.42;;;19.80;48.20;;;;;;5055234;28;20123;-60
2022/01/11 04:38:18;;;;;;;7.57;4.03;;;19.80;48.10;;;;;;5054310;28;20456;-61
2022/01/11 04:40:44;;;;;;;6.05;3.60;;;19.80;48.10;;;;;;5055247;28;20060;-61
2022/01/11 04:43:10;;;;;;;6.72;4.05;;;19.80;48.10;;;;;;5055264;28;20037;-61
2022/01/11 04:45:35;;;;;;;6.18;3.30;;;19.80;48.10;;;;;;5054108;28;20041;-61
2022/01/11 04:48:01;;;;;;;6.90;3.85;;;19.80;48.10;;;;;;5054644;28;20037;-61
2022/01/11 04:50:27;;;;;;;6.22;3.50;;;19.80;48.00;;;;;;5054142;28;20045;-60
2022/01/11 04:52:52;;;;;;;7.10;3.83;;;19.80;48.00;;;;;;5054038;28;20077;-61
2022/01/11 04:55:18;;;;;;;7.28;4.10;;;19.80;48.00;;;;;;5054618;28;20041;-61
2022/01/11 04:57:43;;;;;;;7.43;3.60;;;19.80;48.00;;;;;;5054740;28;20068;-60
2022/01/11 05:00:10;;;;;;;7.85;4.07;;;19.80;48.00;;;;;;5053528;28;20052;-60
2022/01/11 05:02:35;;;;;;;5.97;3.78;;;19.80;47.90;;;;;;5062412;28;20416;-61
2022/01/11 05:05:01;;;;;;;7.63;4.18;;;19.80;47.90;;;;;;5074012;28;20046;-60
2022/01/11 05:07:26;;;;;;;6.13;3.80;;;19.80;47.90;;;;;;5073345;28;20094;-61
2022/01/11 05:09:53;;;;;;;7.03;3.83;;;19.90;47.90;;;;;;5074808;28;20044;-61
2022/01/11 05:12:19;;;;;;;6.40;4.00;;;19.90;47.90;;;;;;5072817;28;20051;-61
2022/01/11 05:14:44;;;;;;;7.70;3.90;;;19.90;47.90;;;;;;5055828;28;20127;-60
2022/01/11 05:17:10;;;;;;;7.50;4.38;;;19.90;47.90;;;;;;5074273;28;20541;-61
2022/01/11 05:19:35;;;;;;;8.75;4.40;;;19.90;47.80;;;;;;5074024;28;20048;-61
2022/01/11 05:22:01;;;;;;;8.30;4.20;;;19.90;47.80;;;;;;5073740;28;20037;-61
2022/01/11 05:24:26;;;;;;;7.68;4.13;;;19.90;47.70;;;;;;5074024;28;20044;-61
2022/01/11 05:26:52;;;;;;;8.13;5.03;;;19.90;47.70;;;;;;5074324;28;20040;-60
2022/01/11 05:29:17;;;;;;;7.70;4.32;;;19.90;47.80;;;;;;5073245;28;20043;-60
2022/01/11 05:31:43;;;;;;;8.18;4.70;;;19.90;47.70;;;;;;5074364;28;20046;-61
2022/01/11 05:34:08;;;;;;;8.55;4.95;;;19.90;47.70;;;;;;5073025;28;20044;-60
2022/01/11 05:36:34;;;;;;;7.15;4.50;;;19.90;47.70;;;;;;5073938;28;20076;-60
2022/01/11 05:38:59;;;;;;;9.38;4.60;;;19.90;47.70;;;;;;5074155;28;20048;-61
2022/01/11 05:41:25;;;;;;;9.07;4.78;;;19.90;47.70;;;;;;5073112;28;20040;-60
2022/01/11 05:43:50;;;;;;;7.18;4.47;;;19.90;47.70;;;;;;5074113;28;20048;-60
2022/01/11 05:46:16;;;;;;;6.82;4.70;;;19.90;47.70;;;;;;5073494;28;20036;-61
2022/01/11 05:48:44;;;;;;;7.85;4.93;;;19.90;47.70;;;;;;5072887;28;20052;-61
2022/01/11 05:51:11;;;;;;;8.65;5.05;;;19.90;47.60;;;;;;5073898;28;20047;-61
2022/01/11 05:53:36;;;;;;;9.07;5.00;;;19.90;47.60;;;;;;5073541;28;20126;-61
2022/01/11 05:56:02;;;;;;;8.35;5.10;;;19.90;47.60;;;;;;5073054;28;20078;-61
2022/01/11 05:58:27;;;;;;;7.93;5.07;;;19.90;47.60;;;;;;5073025;28;20129;-61
2022/01/11 06:00:53;;;;;;;8.25;5.10;;;19.90;47.60;;;;;;5073777;28;20051;-60
2022/01/11 06:03:18;;;;;;;9.60;5.25;;;19.90;47.60;;;;;;5072463;28;20056;-61
2022/01/11 06:05:44;;;;;;;9.05;5.18;;;19.90;47.50;;;;;;5073361;28;20048;-60
2022/01/11 06:08:09;;;;;;;9.32;5.15;;;19.90;47.50;;;;;;5073517;28;20377;-60
2022/01/11 06:10:35;;;;;;;10.10;5.53;;;19.90;47.40;;;;;;5072144;28;20136;-61
2022/01/11 06:13:00;;;;;;;9.85;5.80;;;19.90;47.50;;;;;;5073560;28;20041;-60
2022/01/11 06:15:29;;;;;;;10.35;4.90;;;20.00;47.50;;;;;;5072993;28;20048;-60
2022/01/11 06:17:54;;;;;;;8.10;5.07;;;20.00;47.50;;;;;;5072609;28;20040;-60
2022/01/11 06:20:20;;;;;;;10.30;5.43;;;19.90;47.50;;;;;;5072478;28;20051;-61
2022/01/11 06:22:45;;;;;;;9.90;5.65;;;19.90;47.40;;;;;;5073107;28;20055;-61
2022/01/11 06:25:11;;;;;;;11.30;5.93;;;20.00;47.50;;;;;;5071839;28;20040;-60
2022/01/11 06:27:40;;;;;;;10.20;6.03;;;19.90;47.40;;;;;;5073183;28;20457;-60
2022/01/11 06:30:07;;;;;;;9.88;5.70;;;19.90;47.30;;;;;;5072861;28;20040;-60
2022/01/11 06:32:32;;;;;;;10.63;5.90;;;19.90;47.30;;;;;;5072202;28;20052;-60
2022/01/11 06:34:59;;;;;;;9.52;5.50;;;19.90;47.30;;;;;;5073220;28;20089;-61
2022/01/11 06:37:24;;;;;;;11.07;6.18;;;20.00;47.40;;;;;;5071728;28;20036;-61
2022/01/11 06:39:50;;;;;;;11.20;6.47;;;19.90;48.00;;;;;;5072891;28;20045;-60
2022/01/11 06:42:15;;;;;;;11.68;6.55;;;20.00;47.40;;;;;;5072484;28;20044;-61
2022/01/11 06:44:42;;;;;;;9.57;5.80;;;19.90;47.30;;;;;;5072146;28;20048;-60
2022/01/11 06:47:08;;;;;;;10.27;5.88;;;19.90;47.20;;;;;;5072788;28;20508;-61
2022/01/11 06:49:34;;;;;;;11.30;5.90;;;20.00;47.20;;;;;;5072507;28;20125;-61
2022/01/11 06:51:59;;;;;;;12.75;6.47;;;20.00;47.30;;;;;;5072646;28;20131;-61
2022/01/11 06:54:25;;;;;;;10.30;6.45;;;19.90;47.20;;;;;;5072658;28;20032;-60
2022/01/11 06:56:50;;;;;;;12.23;6.45;;;20.00;47.30;;;;;;5072435;28;20500;-61
2022/01/11 06:59:16;;;;;;;13.25;6.35;;;20.00;47.20;;;;;;5071292;28;20059;-60
2022/01/11 07:01:41;;;;;;;11.10;6.30;;;20.00;47.20;;;;;;5073173;28;20094;-60
2022/01/11 07:04:07;;;;;;;11.48;6.18;;;20.00;47.20;;;;;;5072785;28;20044;-60
2022/01/11 07:06:32;;;;;;;10.75;6.45;;;20.00;47.20;;;;;;5071619;28;20052;-61
2022/01/11 07:08:58;;;;;;;12.02;6.57;;;20.00;47.20;;;;;;5072690;28;20059;-61
2022/01/11 07:11:24;;;;;;;10.20;6.43;;;20.00;47.10;;;;;;5072119;28;20507;-60
2022/01/11 07:13:50;;;;;;;12.57;6.72;;;20.00;47.10;;;;;;5071830;28;20044;-61
2022/01/11 07:16:15;;;;;;;11.45;6.35;;;20.00;47.10;;;;;;5072444;28;20036;-61
2022/01/11 07:18:41;;;;;;;10.38;6.50;;;20.00;47.10;;;;;;5072452;28;20499;-60
2022/01/11 07:21:06;;;;;;;11.30;6.82;;;20.00;47.10;;;;;;5071067;28;20048;-61
2022/01/11 07:23:32;;;;;;;10.68;6.47;;;20.00;47.00;;;;;;5072082;28;20563;-60
2022/01/11 07:25:57;;;;;;;12.50;6.45;;;20.00;47.00;;;;;;5072692;28;20044;-61
2022/01/11 07:28:23;;;;;;;19.30;7.20;;;20.00;47.00;;;;;;5071491;28;20051;-62
2022/01/11 07:30:50;;;;;;;17.65;7.45;;;20.00;47.00;;;;;;5072565;28;20056;-62
2022/01/11 07:33:16;;;;;;;13.25;6.30;;;20.00;47.00;;;;;;5072284;28;20120;-60
2022/01/11 07:35:41;;;;;;;10.60;6.20;;;20.00;47.00;;;;;;5071499;28;20478;-61
2022/01/11 07:38:07;;;;;;;10.50;6.78;;;20.10;47.00;;;;;;5076011;28;20055;-61
2022/01/11 07:40:32;;;;;;;11.57;6.20;;;20.00;47.00;;;;;;5075247;28;20048;-61
2022/01/11 07:42:58;;;;;;;11.85;6.93;;;20.00;46.90;;;;;;5075804;28;20056;-61
2022/01/11 07:45:23;;;;;;;12.63;6.95;;;20.00;46.90;;;;;;5075655;28;20126;-61
2022/01/11 07:47:49;;;;;;;11.70;6.70;;;20.00;47.00;;;;;;5075534;28;20036;-61
2022/01/11 07:50:15;;;;;;;11.18;6.40;;;20.10;47.10;;;;;;5076068;28;20083;-61
2022/01/11 07:52:40;;;;;;;10.38;6.88;;;20.10;47.10;;;;;;5076125;28;20044;-60
2022/01/11 07:55:06;;;;;;;11.98;6.97;;;20.10;47.20;;;;;;5069053;28;20033;-60
2022/01/11 07:57:32;;;;;;;9.75;6.43;;;20.10;47.30;;;;;;5057366;28;20611;-60
2022/01/11 07:59:57;;;;;;;11.10;6.30;;;20.00;47.60;;;;;;5055733;28;20053;-59
2022/01/11 08:02:23;;;;;;;14.05;6.70;;;20.10;47.80;;;;;;5058447;28;20053;-60
2022/01/11 08:04:49;;;;;;;10.15;6.20;;;20.10;48.10;;;;;;5055206;28;20045;-60
2022/01/11 08:07:15;;;;;;;10.45;6.95;;;20.10;48.20;;;;;;5062333;28;20036;-60
2022/01/11 08:09:41;;;;;;;9.35;6.18;;;20.10;48.30;;;;;;5057328;28;20098;-60
2022/01/11 08:12:07;;;;;;;12.57;6.47;;;20.10;48.50;;;;;;5055594;28;20045;-60
2022/01/11 08:14:32;;;;;;;12.30;6.85;;;20.10;48.50;;;;;;5055378;28;20069;-60
2022/01/11 08:16:58;;;;;;;11.38;6.75;;;20.10;48.60;;;;;;5054815;28;20099;-60
2022/01/11 08:19:25;;;;;;;13.88;7.68;;;20.10;48.70;;;;;;5054795;28;20097;-60
2022/01/11 08:21:53;;;;;;;11.93;6.88;;;20.20;48.70;;;;;;5055739;28;20155;-60
2022/01/11 08:24:21;;;;;;;11.23;6.93;;;20.20;48.80;;;;;;5062473;28;20572;-60
2022/01/11 08:26:47;;;;;;;12.67;7.50;;;20.10;48.80;;;;;;5075576;28;20109;-60
2022/01/11 08:29:14;;;;;;;12.27;6.60;;;20.10;48.70;;;;;;5074907;28;20403;-60
2022/01/11 08:31:39;;;;;;;13.32;6.82;;;20.20;48.80;;;;;;5071229;28;20546;-60
2022/01/11 08:34:11;;;;;;;11.00;7.15;;;20.20;48.90;;;;;;5075164;28;20040;-61
2022/01/11 08:36:48;;;;;;;11.23;7.05;;;20.20;48.80;;;;;;5074897;28;20108;-61
2022/01/11 08:39:14;;;;;;;10.73;6.75;;;20.20;48.80;;;;;;5073881;28;20040;-61
2022/01/11 08:41:39;;;;;;;10.40;6.40;;;20.20;48.80;;;;;;5075218;28;20059;-61
2022/01/11 08:44:05;;;;;;;10.35;6.45;;;20.20;48.60;;;;;;5074623;28;20040;-60
2022/01/11 08:46:31;;;;;;;10.68;6.88;;;20.20;48.40;;;;;;5074657;28;20048;-61
2022/01/11 08:48:56;;;;;;;12.10;6.38;;;20.20;48.40;;;;;;5074508;28;20492;-60
2022/01/11 08:51:23;;;;;;;11.75;7.38;;;20.20;48.40;;;;;;5073808;28;20046;-61
2022/01/11 08:53:48;;;;;;;12.25;7.28;;;20.20;48.40;;;;;;5057471;28;20067;-61
2022/01/11 08:56:17;;;;;;;11.05;7.00;;;20.20;48.50;;;;;;5074937;28;20412;-60
2022/01/11 08:58:43;;;;;;;;;;;20.20;48.50;;;;;;5074333;28;20120;-60
2022/01/11 09:01:09;;;;;;;10.18;7.13;;;20.20;48.50;;;;;;5074956;28;20007;-60
2022/01/11 09:03:34;;;;;;;13.60;7.45;;;20.30;48.50;;;;;;5074376;28;20119;-60
2022/01/11 09:06:00;;;;;;;10.93;6.93;;;20.20;48.50;;;;;;5074129;28;20068;-60
2022/01/11 09:08:25;;;;;;;11.60;6.88;;;20.30;48.50;;;;;;5074178;28;20377;-60
2022/01/11 09:10:51;;;;;;;10.88;6.72;;;20.30;48.50;;;;;;5074835;28;20084;-60
2022/01/11 09:13:18;;;;;;;13.20;7.47;;;20.30;48.50;;;;;;5073734;28;20460;-60
2022/01/11 09:15:43;;;;;;;10.18;6.80;;;20.30;48.50;;;;;;5074779;28;20094;-63
2022/01/11 09:18:10;;;;;;;10.48;6.60;;;20.30;48.50;;;;;;5073656;28;20430;-60
2022/01/11 09:20:36;;;;;;;11.57;7.10;;;20.30;48.50;;;;;;5073271;28;20080;-60
2022/01/11 09:23:01;;;;;;;13.02;7.45;;;20.30;48.40;;;;;;5074235;28;20126;-61
2022/01/11 09:25:27;;;;;;;10.50;6.93;;;20.30;48.40;;;;;;5074229;28;20053;-60
2022/01/11 09:27:52;;;;;;;10.70;6.25;;;20.30;48.50;;;;;;5073522;28;20040;-60
2022/01/11 09:30:18;;;;;;;9.35;6.63;;;20.40;48.50;;;;;;5074046;28;20049;-60
2022/01/11 09:32:44;;;;;;;9.98;6.30;;;20.40;48.60;;;;;;5074182;28;20051;-60
2022/01/11 09:35:10;;;;;;;12.23;6.85;;;20.40;48.50;;;;;;5073068;28;20044;-60
2022/01/11 09:37:36;;;;;;;10.20;6.45;;;20.40;48.50;;;;;;5073620;28;20051;-60
2022/01/11 09:40:06;;;;;;;11.20;6.93;;;20.40;48.50;;;;;;5073726;28;20561;-60
2022/01/11 09:42:31;;;;;;;10.63;6.72;;;20.40;48.50;;;;;;5073365;28;20049;-60
2022/01/11 09:44:58;;;;;;;10.63;6.85;;;20.40;48.50;;;;;;5074020;28;20199;-60
2022/01/11 09:47:24;;;;;;;11.27;6.95;;;20.50;48.60;;;;;;5072536;28;20040;-60
2022/01/11 09:49:49;;;;;;;10.23;6.45;;;20.50;48.60;;;;;;5073837;28;20399;-61
2022/01/11 09:52:15;;;;;;;11.38;7.00;;;20.50;48.40;;;;;;5073478;28;20040;-61
2022/01/11 09:54:45;;;;;;;10.57;6.40;;;20.50;48.50;;;;;;5073202;28;20475;-61
2022/01/11 09:57:10;;;;;;;10.30;6.47;;;20.50;48.40;;;;;;5073830;28;20040;-60
2022/01/11 09:59:36;;;;;;;11.25;6.50;;;20.50;48.50;;;;;;5054336;28;20407;-60
2022/01/11 10:02:01;;;;;;;11.40;6.57;;;20.50;48.50;;;;;;5073387;28;20460;-61
2022/01/11 10:04:29;;;;;;;11.57;7.25;;;20.50;48.60;;;;;;5073340;28;20048;-60
2022/01/11 10:06:57;;;;;;;11.75;6.93;;;20.50;48.70;;;;;;5073492;28;20067;-60
2022/01/11 10:09:24;;;;;;;11.20;6.65;;;20.50;48.70;;;;;;5072601;28;20044;-60
2022/01/11 10:11:51;;;;;;;11.15;6.70;;;20.50;48.70;;;;;;5073611;28;20092;-60
2022/01/11 10:14:31;;;;;;;10.53;6.27;;;20.60;48.90;;;;;;5064363;28;20045;-60
2022/01/11 10:17:19;;;;;;;10.63;6.38;;;20.50;48.80;;;;;;5061321;28;20305;-60
2022/01/11 10:20:20;;;;;;;13.48;6.90;;;20.60;48.80;;;;;;5061064;28;20041;-59
2022/01/11 10:22:56;;;;;;;10.90;6.35;;;20.60;48.70;;;;;;5054775;28;20400;-61
2022/01/11 10:25:23;;;;;;;10.40;5.97;;;20.50;48.70;;;;;;5052865;28;20467;-60
2022/01/11 10:28:01;;;;;;;9.90;6.28;;;20.60;48.70;;;;;;5052954;28;20137;-61
2022/01/11 10:30:26;;;;;;;;;;;20.50;48.40;;;;;;5052885;28;20044;-61
2022/01/11 10:32:53;;;;;;;9.98;6.30;;;20.50;48.40;;;;;;5053155;28;19927;-60
2022/01/11 10:35:23;;;;;;;10.43;6.32;;;20.50;48.40;;;;;;5052828;28;20121;-60
2022/01/11 10:37:53;;;;;;;9.60;6.40;;;20.50;48.20;;;;;;5052291;28;20044;-61
2022/01/11 10:40:34;;;;;;;10.70;6.93;;;20.50;48.10;;;;;;5035441;28;20075;-61
2022/01/11 10:43:11;;;;;;;10.75;6.50;;;20.50;47.70;;;;;;5053071;28;20041;-61
2022/01/11 10:45:38;;;;;;;11.27;6.82;;;20.50;47.50;;;;;;5052111;28;20063;-61
2022/01/11 10:48:11;;;;;;;11.95;6.85;;;20.40;47.20;;;;;;5052705;28;20455;-61
2022/01/11 10:50:38;;;;;;;10.35;6.72;;;20.40;46.90;;;;;;5051769;28;20049;-61
2022/01/11 10:53:05;;;;;;;12.52;6.50;;;20.30;46.80;;;;;;5053030;28;20072;-61
2022/01/11 10:55:33;;;;;;;14.13;6.85;;;20.30;46.60;;;;;;5052358;28;20299;-61
2022/01/11 10:58:09;;;;;;;12.63;7.67;;;20.30;46.40;;;;;;5051934;28;20076;-61
2022/01/11 11:00:36;;;;;;;12.70;7.38;;;20.30;45.80;;;;;;5052335;28;20322;-61
2022/01/11 11:03:10;;;;;;;12.25;7.47;;;20.30;45.80;;;;;;5052549;28;20476;-61
2022/01/11 11:05:40;;;;;;;11.27;7.45;;;20.20;45.80;;;;;;5051878;28;20515;-60
2022/01/11 11:08:17;;;;;;;13.43;7.47;;;20.20;45.50;;;;;;5052882;28;20048;-61
2022/01/11 11:10:49;;;;;;;16.90;7.75;;;20.20;45.30;;;;;;5052695;28;20037;-61
2022/01/11 11:13:41;;;;;;;12.35;7.20;;;20.20;45.20;;;;;;5051463;28;20131;-61
2022/01/11 11:16:15;;;;;;;12.93;7.45;;;20.20;44.80;;;;;;5043774;28;20049;-61
2022/01/11 11:18:48;;;;;;;11.77;7.15;;;20.20;45.00;;;;;;5051701;28;20037;-60
2022/01/11 11:21:23;;;;;;;11.35;7.20;;;20.20;45.10;;;;;;5051967;28;20049;-61
2022/01/11 11:23:57;;;;;;;11.88;7.15;;;20.20;45.10;;;;;;5052352;28;20059;-60
2022/01/11 11:26:24;;;;;;;13.05;6.85;;;20.20;45.10;;;;;;5051394;28;20053;-61
2022/01/11 11:28:50;;;;;;;11.40;6.95;;;20.20;45.10;;;;;;5052099;28;20434;-61
2022/01/11 11:31:16;;;;;;;10.52;6.72;;;20.20;45.20;;;;;;5070615;28;20104;-60
2022/01/11 11:33:41;;;;;;;13.43;6.95;;;20.20;45.20;;;;;;5053791;28;20049;-61
2022/01/11 11:36:10;;;;;;;10.45;6.65;;;20.10;45.10;;;;;;5072326;28;20495;-61
2022/01/11 11:38:37;;;;;;;;;;;20.20;45.20;;;;;;5072251;28;20056;-61
2022/01/11 11:41:03;;;;;;;11.40;6.53;;;20.10;45.10;;;;;;5053686;28;19921;-61
2022/01/11 11:43:28;;;;;;;10.63;6.20;;;20.10;45.20;;;;;;5054350;28;20051;-61
2022/01/11 11:45:54;;;;;;;10.20;6.65;;;20.20;45.10;;;;;;5072373;28;20051;-61
2022/01/11 11:48:23;;;;;;;9.98;6.30;;;20.20;45.00;;;;;;5070876;28;20052;-61
2022/01/11 11:51:18;;;;;;;9.88;6.80;;;20.20;45.00;;;;;;5072217;28;20468;-61
2022/01/11 11:53:44;;;;;;;8.32;5.88;;;20.20;44.80;;;;;;5044646;28;20083;-62
2022/01/11 11:56:21;;;;;;;11.57;6.78;;;20.20;44.90;;;;;;5025923;28;20478;-61
2022/01/11 11:58:52;;;;;;;14.20;6.60;;;20.20;45.00;;;;;;5060388;28;20051;-61
2022/01/11 12:01:50;;;;;;;9.40;6.15;;;20.10;45.10;;;;;;5060402;28;20056;-61
2022/01/11 12:04:15;;;;;;;13.75;6.40;;;20.10;45.10;;;;;;5061722;28;20040;-62
2022/01/11 12:06:42;;;;;;;9.25;6.28;;;20.10;45.20;;;;;;5043021;28;20045;-61
2022/01/11 12:09:10;;;;;;;10.73;5.93;;;20.20;45.20;;;;;;5060020;28;20044;-61
2022/01/11 12:11:37;;;;;;;9.20;5.93;;;20.10;45.10;;;;;;5061563;28;20063;-61
2022/01/11 12:14:02;;;;;;;11.90;6.03;;;20.10;45.20;;;;;;5061453;28;20080;-62
2022/01/11 12:16:34;;;;;;;9.30;5.78;;;20.20;45.20;;;;;;5041198;28;20072;-62
2022/01/11 12:19:07;;;;;;;10.10;6.03;;;20.20;45.20;;;;;;5051483;28;20045;-61
2022/01/11 12:21:52;;;;;;;8.20;5.80;;;20.20;45.40;;;;;;5038815;28;20049;-62
2022/01/11 12:24:33;;;;;;;9.18;5.85;;;20.20;45.30;;;;;;5064324;28;20033;-62
2022/01/11 12:26:58;;;;;;;10.40;6.10;;;20.20;45.20;;;;;;5065634;28;20048;-61
2022/01/11 12:29:25;;;;;;;9.98;5.80;;;20.20;45.30;;;;;;5062873;28;20047;-61
2022/01/11 12:32:03;;;;;;;10.65;5.95;;;20.20;45.30;;;;;;5065717;28;20044;-61
2022/01/11 12:34:48;;;;;;;9.82;6.45;;;20.20;45.30;;;;;;5037220;28;20088;-60
2022/01/11 12:37:23;;;;;;;10.32;5.90;;;20.20;45.30;;;;;;5063621;28;20111;-61
2022/01/11 12:40:06;;;;;;;11.45;6.13;;;20.20;45.40;;;;;;5064024;28;20044;-61
2022/01/11 12:42:32;;;;;;;8.45;5.20;;;20.20;45.30;;;;;;5073861;28;20087;-59